Airport View

Enter AWOS ICAO identifier for current METAR.

ex. KFNL

KUAO 262353Z 19009KT 10SM SCT100 12/06 A3006 RMK AO2 PK WND 20026/2306 SLP179 T01220061 10128 20094 56005

27 Jan 2020 00:56

Frequency: 118.525

Phone: 503-678-3011

Other Area AWOS: KMMV - KHIO - KPDX - KSLE

KUAO 262330Z 2700/2724 21012G20KT P6SM FEW050 BKN080 BKN090 FM270400 19007G14KT P6SM -RA OVC050 FM270800 19003KT P6SM OVC025 FM272000 17007KT 4SM -RA OVC025 FM272200 18012G20KT 4SM -RA BR OVC025